createdAt,value
2019-02-07T00:01:35.780Z,15.67
2019-02-07T00:03:39.970Z,14.00
2019-02-07T00:05:43.861Z,13.77
2019-02-07T00:07:47.698Z,13.40
2019-02-07T00:09:51.556Z,12.60
2019-02-07T00:11:55.615Z,12.27
2019-02-07T00:13:59.476Z,14.13
2019-02-07T00:16:03.517Z,13.60
2019-02-07T00:18:07.931Z,12.20
2019-02-07T00:20:17.561Z,12.80
2019-02-07T00:22:21.717Z,12.63
2019-02-07T00:24:25.550Z,13.40
2019-02-07T00:26:29.392Z,12.23
2019-02-07T00:28:33.764Z,13.33
2019-02-07T00:30:37.604Z,12.77
2019-02-07T00:32:41.436Z,13.80
2019-02-07T00:34:45.238Z,13.27
2019-02-07T00:36:49.134Z,13.27
2019-02-07T00:38:53.407Z,13.30
2019-02-07T00:40:57.237Z,15.53
2019-02-07T00:43:01.210Z,13.00
2019-02-07T00:45:07.958Z,12.87
2019-02-07T00:47:11.835Z,11.93
2019-02-07T00:49:16.030Z,13.23
2019-02-07T00:51:19.860Z,12.87
2019-02-07T00:53:23.767Z,12.50
2019-02-07T00:55:27.613Z,13.53
2019-02-07T00:57:31.437Z,12.17
2019-02-07T00:59:35.706Z,12.90
2019-02-07T01:01:39.558Z,13.07
2019-02-07T01:03:43.536Z,12.20
2019-02-07T01:05:47.426Z,11.93
2019-02-07T01:07:51.874Z,12.27
2019-02-07T01:09:56.194Z,13.13
2019-02-07T01:12:00.053Z,13.77
2019-02-07T01:14:04.125Z,13.60
2019-02-07T01:16:08.040Z,11.97
2019-02-07T01:18:11.903Z,12.43
2019-02-07T01:20:17.225Z,12.20
2019-02-07T01:22:21.106Z,11.73
2019-02-07T01:24:24.950Z,11.07
2019-02-07T01:26:28.841Z,11.87
2019-02-07T01:28:32.724Z,14.00
2019-02-07T01:30:37.008Z,12.67
2019-02-07T01:32:40.877Z,12.20
2019-02-07T01:34:44.771Z,14.43
2019-02-07T01:36:48.660Z,14.50
2019-02-07T01:38:52.565Z,14.23
2019-02-07T01:40:56.774Z,14.43
2019-02-07T01:43:00.643Z,12.83
2019-02-07T01:45:13.114Z,12.70
2019-02-07T01:47:12.326Z,14.90
2019-02-07T01:49:16.191Z,13.00
2019-02-07T01:51:20.027Z,11.53
2019-02-07T01:53:23.909Z,14.07
2019-02-07T01:55:27.774Z,12.27
2019-02-07T01:57:31.711Z,11.73
2019-02-07T01:59:35.691Z,12.63
2019-02-07T02:01:40.120Z,13.60
2019-02-07T02:03:43.961Z,15.37
2019-02-07T02:05:47.947Z,12.93
2019-02-07T02:07:51.920Z,12.40
2019-02-07T02:09:55.816Z,11.77
2019-02-07T02:12:00.013Z,11.17
2019-02-07T02:14:04.403Z,12.70
2019-02-07T02:16:08.308Z,13.33
2019-02-07T02:18:12.170Z,11.30
2019-02-07T02:20:18.841Z,12.87
2019-02-07T02:22:22.688Z,12.63
2019-02-07T02:24:26.573Z,13.70
2019-02-07T02:26:30.476Z,12.17
2019-02-07T02:28:34.514Z,11.97
2019-02-07T02:30:38.375Z,12.13
2019-02-07T02:32:42.211Z,13.37
2019-02-07T02:34:46.104Z,14.23
2019-02-07T02:36:49.942Z,13.57
2019-02-07T02:38:53.844Z,13.80
2019-02-07T02:40:58.030Z,15.23
2019-02-07T02:43:02.180Z,15.03
2019-02-07T02:45:09.023Z,13.27
2019-02-07T02:47:12.919Z,14.17
2019-02-07T02:49:16.780Z,12.23
2019-02-07T02:51:20.632Z,12.00
2019-02-07T02:53:24.524Z,14.20
2019-02-07T02:55:29.984Z,13.03
2019-02-07T02:57:33.851Z,13.33
2019-02-07T02:59:37.768Z,14.00
2019-02-07T03:01:45.950Z,13.03
2019-02-07T03:04:09.170Z,13.03
2019-02-07T03:06:30.891Z,13.77
2019-02-07T03:08:51.391Z,13.27
2019-02-07T03:11:08.718Z,12.83
2019-02-07T03:13:14.199Z,14.63
2019-02-07T03:15:22.410Z,13.63
2019-02-07T03:17:28.010Z,13.60
2019-02-07T03:19:36.191Z,11.70
2019-02-07T03:21:47.123Z,11.33
2019-02-07T03:23:55.527Z,12.63
2019-02-07T03:26:00.998Z,14.17
2019-02-07T03:28:06.588Z,14.07
2019-02-07T03:30:26.529Z,14.20
2019-02-07T03:32:31.939Z,14.30
2019-02-07T03:34:43.245Z,14.40
2019-02-07T03:37:04.428Z,12.87
2019-02-07T03:39:25.416Z,14.93
2019-02-07T03:41:31.546Z,13.63
2019-02-07T03:43:53.821Z,11.53
2019-02-07T03:46:05.834Z,12.00
2019-02-07T03:48:17.469Z,13.57
2019-02-07T03:50:32.166Z,13.87
2019-02-07T03:52:40.908Z,12.07
2019-02-07T03:55:02.639Z,14.80
2019-02-07T03:57:11.181Z,13.80
2019-02-07T03:59:33.594Z,12.53
2019-02-07T04:01:42.863Z,13.77
2019-02-07T04:03:48.372Z,12.77
2019-02-07T04:05:53.838Z,12.53
2019-02-07T04:08:11.509Z,13.10
2019-02-07T04:10:20.252Z,13.20
2019-02-07T04:12:31.453Z,12.90
2019-02-07T04:14:42.762Z,10.73
2019-02-07T04:16:48.228Z,12.90
2019-02-07T04:18:53.710Z,13.53
2019-02-07T04:21:08.229Z,13.73
2019-02-07T04:23:19.342Z,14.23
2019-02-07T04:25:24.800Z,12.77
2019-02-07T04:27:30.565Z,13.27
2019-02-07T04:29:36.066Z,13.13
2019-02-07T04:31:59.686Z,12.60
2019-02-07T04:34:05.128Z,9.47
2019-02-07T04:36:16.453Z,12.27
2019-02-07T04:38:21.936Z,13.33
2019-02-07T04:40:30.329Z,12.47
2019-02-07T04:42:35.786Z,10.90
2019-02-07T04:44:47.068Z,12.27
2019-02-07T04:46:55.187Z,11.27
2019-02-07T04:49:00.655Z,11.37
2019-02-07T04:51:12.302Z,11.90
2019-02-07T04:53:17.825Z,10.83
2019-02-07T04:55:41.487Z,11.03
2019-02-07T04:57:46.940Z,12.33
2019-02-07T05:00:09.967Z,11.33
2019-02-07T05:02:24.918Z,10.33
2019-02-07T05:04:36.148Z,11.23
2019-02-07T05:06:50.620Z,11.70
2019-02-07T05:09:12.341Z,11.13
2019-02-07T05:11:17.775Z,12.70
2019-02-07T05:13:35.896Z,13.23
2019-02-07T05:15:57.870Z,10.67
2019-02-07T05:18:03.337Z,11.37
2019-02-07T05:20:27.228Z,10.13
2019-02-07T05:22:33.152Z,11.77
2019-02-07T05:24:55.063Z,10.77
2019-02-07T05:27:03.490Z,12.07
2019-02-07T05:29:25.357Z,12.10
2019-02-07T05:31:47.200Z,10.00
2019-02-07T05:33:55.734Z,11.53
2019-02-07T05:36:17.427Z,11.83
2019-02-07T05:38:25.625Z,12.93
2019-02-07T05:40:47.113Z,9.70
2019-02-07T05:43:04.585Z,12.23
2019-02-07T05:45:20.883Z,10.53
2019-02-07T05:47:35.375Z,10.73
2019-02-07T05:49:53.130Z,11.10
2019-02-07T05:52:15.056Z,10.80
2019-02-07T05:54:22.959Z,12.47
2019-02-07T05:56:44.879Z,10.43
2019-02-07T05:59:02.576Z,12.20
2019-02-07T06:01:08.017Z,11.63
2019-02-07T06:03:13.515Z,12.07
2019-02-07T06:05:34.262Z,11.63
2019-02-07T06:07:51.758Z,10.27
2019-02-07T06:10:03.300Z,12.37
2019-02-07T06:12:08.744Z,10.73
2019-02-07T06:14:23.335Z,9.77
2019-02-07T06:16:35.081Z,10.87
2019-02-07T06:18:58.454Z,9.87
2019-02-07T06:21:12.881Z,9.23
2019-02-07T06:23:18.293Z,9.67
2019-02-07T06:25:35.727Z,11.07
2019-02-07T06:27:41.202Z,9.13
2019-02-07T06:29:52.540Z,9.83
2019-02-07T06:32:09.885Z,9.77
2019-02-07T06:34:15.309Z,10.37
2019-02-07T06:36:20.765Z,11.27
2019-02-07T06:38:42.832Z,7.13
2019-02-07T06:40:51.295Z,8.47
2019-02-07T06:43:13.312Z,9.50
2019-02-07T06:45:27.643Z,9.50
2019-02-07T06:47:33.509Z,9.57
2019-02-07T06:49:47.901Z,10.17
2019-02-07T06:51:56.310Z,9.40
2019-02-07T06:54:18.079Z,10.00
2019-02-07T06:56:23.516Z,10.77
2019-02-07T06:58:44.292Z,9.70
2019-02-07T07:01:06.114Z,10.13
2019-02-07T07:03:27.566Z,11.73
2019-02-07T07:05:49.515Z,10.80
2019-02-07T07:07:54.979Z,10.30
2019-02-07T07:10:16.429Z,10.97
2019-02-07T07:12:36.619Z,11.40
2019-02-07T07:14:57.093Z,10.33
2019-02-07T07:17:02.549Z,9.63
2019-02-07T07:19:24.214Z,11.87
2019-02-07T07:21:44.982Z,12.67
2019-02-07T07:23:56.476Z,10.63
2019-02-07T07:26:18.286Z,10.73
2019-02-07T07:28:26.887Z,10.50
2019-02-07T07:30:48.835Z,11.60
2019-02-07T07:33:00.286Z,10.90
2019-02-07T07:35:06.638Z,11.93
2019-02-07T07:37:14.852Z,10.73
2019-02-07T07:39:35.453Z,11.90
2019-02-07T07:41:40.872Z,10.47
2019-02-07T07:43:52.593Z,10.97
2019-02-07T07:45:58.486Z,12.07
2019-02-07T07:48:15.655Z,13.33
2019-02-07T07:50:21.139Z,10.83
2019-02-07T07:52:35.710Z,12.67
2019-02-07T07:54:57.438Z,11.93
2019-02-07T07:57:02.956Z,12.33
2019-02-07T07:59:11.268Z,10.47
2019-02-07T08:01:32.988Z,10.90
2019-02-07T08:03:38.414Z,9.93
2019-02-07T08:06:02.140Z,11.13
2019-02-07T08:08:10.017Z,10.27
2019-02-07T08:10:18.228Z,12.50
2019-02-07T08:12:24.197Z,10.23
2019-02-07T08:14:32.101Z,11.67
2019-02-07T08:16:46.317Z,11.07
2019-02-07T08:19:08.027Z,11.03
2019-02-07T08:21:31.670Z,10.57
2019-02-07T08:23:40.258Z,10.33
2019-02-07T08:25:48.706Z,10.47
2019-02-07T08:28:12.570Z,9.43
2019-02-07T08:30:36.508Z,10.60
2019-02-07T08:32:59.533Z,11.33
2019-02-07T08:35:23.025Z,13.03
2019-02-07T08:37:28.515Z,11.70
2019-02-07T08:39:43.051Z,11.10
2019-02-07T08:41:51.332Z,10.73
2019-02-07T08:44:13.785Z,9.57
2019-02-07T08:46:25.327Z,10.60
2019-02-07T08:48:33.477Z,10.43
2019-02-07T08:50:38.921Z,9.93
2019-02-07T08:52:47.122Z,11.00
2019-02-07T08:54:55.471Z,10.97
2019-02-07T08:57:00.902Z,11.67
2019-02-07T08:59:22.769Z,9.90
2019-02-07T09:01:36.989Z,11.90
2019-02-07T09:04:00.809Z,12.40
2019-02-07T09:06:18.755Z,8.87
2019-02-07T09:08:29.861Z,9.70
2019-02-07T09:10:53.798Z,11.97
2019-02-07T09:13:17.357Z,10.83
2019-02-07T09:15:31.893Z,10.87
2019-02-07T09:17:55.390Z,9.63
2019-02-07T09:20:01.380Z,10.43
2019-02-07T09:22:23.995Z,10.10
2019-02-07T09:24:32.458Z,11.17
2019-02-07T09:26:55.976Z,10.87
2019-02-07T09:29:10.538Z,10.37
2019-02-07T09:31:32.411Z,10.37
2019-02-07T09:33:43.734Z,6.90
2019-02-07T09:36:04.802Z,7.47
2019-02-07T09:38:21.167Z,7.83
2019-02-07T09:40:29.413Z,7.93
2019-02-07T09:42:37.929Z,7.70
2019-02-07T09:45:01.761Z,8.10
2019-02-07T09:47:07.296Z,9.40
2019-02-07T09:49:12.731Z,8.53
2019-02-07T09:51:23.939Z,8.30
2019-02-07T09:53:32.552Z,9.00
2019-02-07T09:55:38.347Z,8.50
2019-02-07T09:57:43.791Z,9.03
2019-02-07T10:00:04.734Z,7.20
2019-02-07T10:02:26.334Z,6.97
2019-02-07T10:04:40.336Z,7.30
2019-02-07T10:06:48.702Z,6.80
2019-02-07T10:09:00.186Z,6.80
2019-02-07T10:11:21.996Z,6.60
2019-02-07T10:13:27.438Z,4.43
2019-02-07T10:15:32.922Z,6.83
2019-02-07T10:17:41.302Z,6.73
2019-02-07T10:19:49.741Z,6.07
2019-02-07T10:21:58.203Z,6.23
2019-02-07T10:24:06.439Z,5.93
2019-02-07T10:26:20.524Z,5.63
2019-02-07T10:28:28.937Z,3.57
2019-02-07T10:30:51.411Z,3.60
2019-02-07T10:32:56.890Z,4.10
2019-02-07T10:35:02.366Z,4.07
2019-02-07T10:37:07.924Z,2.70
2019-02-07T10:39:16.501Z,2.73
2019-02-07T10:41:27.593Z,3.30
2019-02-07T10:43:47.885Z,3.10
2019-02-07T10:46:10.097Z,4.20
2019-02-07T10:48:17.962Z,4.10
2019-02-07T10:50:41.862Z,2.73
2019-02-07T10:53:03.586Z,2.67
2019-02-07T10:55:15.530Z,3.30
2019-02-07T10:57:39.079Z,2.90
2019-02-07T10:59:47.553Z,3.40
2019-02-07T11:01:53.005Z,3.97
2019-02-07T11:04:13.528Z,3.10
2019-02-07T11:06:24.902Z,3.27
2019-02-07T11:08:33.195Z,2.73
2019-02-07T11:10:44.422Z,4.37
2019-02-07T11:12:49.884Z,3.47
2019-02-07T11:14:55.401Z,3.10
2019-02-07T11:17:02.103Z,3.33
2019-02-07T11:19:07.961Z,2.27
2019-02-07T11:21:13.454Z,3.53
2019-02-07T11:23:30.973Z,2.53
2019-02-07T11:25:52.631Z,3.13
2019-02-07T11:28:10.643Z,3.37
2019-02-07T11:30:26.485Z,3.63
2019-02-07T11:32:40.651Z,2.87
2019-02-07T11:34:48.799Z,2.90
2019-02-07T11:36:54.594Z,3.33
2019-02-07T11:39:12.298Z,2.80
2019-02-07T11:41:23.923Z,2.33
2019-02-07T11:43:35.277Z,2.30
2019-02-07T11:45:40.717Z,3.80
2019-02-07T11:47:46.243Z,3.77
2019-02-07T11:49:51.719Z,3.03
2019-02-07T11:52:06.146Z,2.73
2019-02-07T11:54:17.287Z,3.30
2019-02-07T11:56:31.841Z,2.53
2019-02-07T11:58:40.254Z,3.00
2019-02-07T12:01:03.767Z,3.00
2019-02-07T12:03:12.136Z,3.20
2019-02-07T12:05:26.883Z,3.33
2019-02-07T12:07:39.845Z,3.20
2019-02-07T12:09:54.060Z,2.73
2019-02-07T12:12:16.529Z,3.67
2019-02-07T12:14:37.240Z,2.60
2019-02-07T12:16:58.074Z,3.00
2019-02-07T12:19:22.111Z,2.10
2019-02-07T12:21:27.550Z,2.10
2019-02-07T12:23:49.885Z,3.40
2019-02-07T12:26:01.641Z,2.27
2019-02-07T12:28:25.672Z,2.57
2019-02-07T12:30:47.703Z,2.80
2019-02-07T12:32:55.651Z,3.30
2019-02-07T12:35:04.134Z,2.03
2019-02-07T12:37:12.245Z,2.40
2019-02-07T12:39:17.668Z,3.23
2019-02-07T12:41:35.281Z,2.60
2019-02-07T12:43:52.876Z,2.33
2019-02-07T12:46:07.134Z,2.93
2019-02-07T12:48:24.889Z,3.43
2019-02-07T12:50:45.266Z,3.43
2019-02-07T12:52:53.670Z,2.50
2019-02-07T12:55:08.443Z,3.20
2019-02-07T12:57:13.857Z,3.13
2019-02-07T12:59:25.356Z,2.87
2019-02-07T13:01:31.057Z,2.73
2019-02-07T13:03:45.422Z,2.90
2019-02-07T13:05:53.882Z,3.23
2019-02-07T13:08:17.482Z,2.80
2019-02-07T13:10:39.336Z,2.87
2019-02-07T13:12:50.945Z,3.67
2019-02-07T13:14:59.376Z,2.93
2019-02-07T13:17:17.177Z,3.00
2019-02-07T13:19:40.509Z,3.13
2019-02-07T13:21:44.806Z,3.20
2019-02-07T13:23:59.307Z,2.50
2019-02-07T13:26:09.224Z,2.87
2019-02-07T13:28:14.630Z,3.57
2019-02-07T13:30:36.864Z,4.57
2019-02-07T13:32:54.322Z,2.40
2019-02-07T13:35:17.996Z,2.90
2019-02-07T13:37:41.802Z,2.97
2019-02-07T13:40:03.677Z,3.30
2019-02-07T13:42:12.293Z,2.43
2019-02-07T13:44:26.503Z,2.30
2019-02-07T13:46:37.854Z,2.27
2019-02-07T13:48:43.355Z,2.87
2019-02-07T13:51:05.189Z,2.30
2019-02-07T13:53:10.666Z,2.37
2019-02-07T13:55:16.528Z,2.73
2019-02-07T13:57:22.005Z,3.20
2019-02-07T13:59:45.507Z,2.20
2019-02-07T14:01:51.101Z,3.20
2019-02-07T14:04:02.479Z,2.90
2019-02-07T14:06:24.218Z,1.87
2019-02-07T14:08:38.380Z,1.97
2019-02-07T14:10:42.777Z,2.10
2019-02-07T14:12:48.282Z,2.40
2019-02-07T14:15:08.857Z,2.70
2019-02-07T14:17:32.065Z,2.40
2019-02-07T14:19:40.638Z,2.90
2019-02-07T14:22:01.239Z,4.30
2019-02-07T14:24:06.664Z,2.83
2019-02-07T14:26:14.879Z,2.83
2019-02-07T14:28:23.093Z,1.90
2019-02-07T14:30:31.260Z,2.20
2019-02-07T14:32:36.726Z,2.57
2019-02-07T14:34:48.175Z,2.77
2019-02-07T14:36:56.399Z,2.40
2019-02-07T14:39:01.872Z,2.60
2019-02-07T14:41:07.315Z,2.43
2019-02-07T14:43:12.899Z,2.53
2019-02-07T14:45:34.369Z,2.43
2019-02-07T14:47:38.218Z,3.17
2019-02-07T14:49:42.264Z,3.03
2019-02-07T14:51:46.115Z,2.07
2019-02-07T14:53:50.407Z,2.37
2019-02-07T14:55:54.310Z,2.23
2019-02-07T14:57:58.174Z,2.47
2019-02-07T15:00:02.106Z,2.10
2019-02-07T15:02:06.000Z,2.73
2019-02-07T15:04:10.344Z,2.60
2019-02-07T15:06:14.383Z,2.33
2019-02-07T15:08:18.278Z,2.40
2019-02-07T15:10:22.122Z,1.90
2019-02-07T15:12:26.124Z,2.17
2019-02-07T15:14:30.435Z,2.27
2019-02-07T15:16:34.330Z,1.83
2019-02-07T15:18:38.193Z,2.13
2019-02-07T15:20:42.112Z,2.80
2019-02-07T15:22:46.014Z,2.10
2019-02-07T15:24:50.413Z,2.73
2019-02-07T15:26:54.266Z,2.53
2019-02-07T15:28:58.294Z,2.47
2019-02-07T15:31:02.207Z,2.27
2019-02-07T15:33:06.061Z,2.47
2019-02-07T15:35:18.772Z,2.10
2019-02-07T15:37:22.635Z,2.10
2019-02-07T15:39:26.508Z,2.47
2019-02-07T15:41:30.394Z,2.00
2019-02-07T15:43:34.237Z,2.00
2019-02-07T15:45:38.858Z,2.07
2019-02-07T15:47:42.718Z,2.80
2019-02-07T15:49:46.918Z,3.23
2019-02-07T15:51:50.906Z,2.33
2019-02-07T15:53:54.766Z,1.77
2019-02-07T15:55:58.943Z,2.10
2019-02-07T15:58:02.931Z,2.77
2019-02-07T16:00:11.310Z,2.53
2019-02-07T16:02:15.754Z,2.00
2019-02-07T16:04:24.193Z,2.60
2019-02-07T16:06:28.039Z,2.30
2019-02-07T16:08:32.345Z,1.83
2019-02-07T16:10:36.263Z,2.10
2019-02-07T16:12:40.131Z,2.40
2019-02-07T16:14:43.965Z,2.40
2019-02-07T16:16:47.906Z,1.90
2019-02-07T16:18:52.120Z,2.80
2019-02-07T16:20:56.068Z,2.60
2019-02-07T16:22:59.904Z,1.90
2019-02-07T16:25:05.246Z,1.83
2019-02-07T16:27:09.148Z,2.00
2019-02-07T16:29:13.356Z,2.30
2019-02-07T16:31:17.238Z,2.20
2019-02-07T16:33:21.247Z,2.23
2019-02-07T16:35:25.084Z,2.00
2019-02-07T16:37:28.964Z,1.67
2019-02-07T16:39:33.138Z,2.17
2019-02-07T16:41:37.005Z,1.87
2019-02-07T16:43:40.938Z,2.57
2019-02-07T16:45:44.825Z,1.47
2019-02-07T16:47:48.699Z,1.80
2019-02-07T16:49:53.079Z,1.97
2019-02-07T16:51:56.981Z,1.70
2019-02-07T16:54:00.830Z,1.87
2019-02-07T16:56:04.852Z,1.80
2019-02-07T16:58:08.705Z,1.60
2019-02-07T17:00:15.918Z,1.60
2019-02-07T17:02:19.892Z,1.70
2019-02-07T17:04:23.774Z,1.93
2019-02-07T17:06:27.707Z,1.77
2019-02-07T17:08:31.568Z,1.60
2019-02-07T17:10:40.785Z,1.50
2019-02-07T17:12:44.607Z,2.07
2019-02-07T17:14:48.517Z,2.67
2019-02-07T17:16:52.407Z,1.83
2019-02-07T17:18:56.338Z,1.60
2019-02-07T17:21:11.198Z,1.87
2019-02-07T17:23:05.871Z,2.40
2019-02-07T17:25:09.968Z,1.80
2019-02-07T17:27:13.826Z,1.63
2019-02-07T17:29:17.712Z,1.90
2019-02-07T17:31:21.595Z,1.80
2019-02-07T17:33:25.500Z,2.10
2019-02-07T17:35:29.436Z,2.23
2019-02-07T17:37:33.260Z,1.87
2019-02-07T17:39:37.202Z,1.90
2019-02-07T17:41:41.294Z,2.43
2019-02-07T17:43:45.149Z,2.07
2019-02-07T17:45:49.043Z,2.00
2019-02-07T17:47:52.939Z,2.20
2019-02-07T17:49:56.793Z,2.33
2019-02-07T17:52:01.001Z,2.47
2019-02-07T17:54:05.818Z,2.03
2019-02-07T17:56:09.686Z,2.03
2019-02-07T17:58:13.530Z,2.10
2019-02-07T18:00:30.768Z,2.00
2019-02-07T18:02:34.650Z,2.43
2019-02-07T18:04:38.988Z,2.73
2019-02-07T18:06:42.900Z,2.43
2019-02-07T18:08:46.761Z,2.37
2019-02-07T18:10:51.351Z,2.40
2019-02-07T18:12:55.244Z,1.80
2019-02-07T18:14:59.518Z,1.70
2019-02-07T18:17:03.403Z,1.80
2019-02-07T18:19:07.266Z,2.17
2019-02-07T18:21:11.148Z,1.97
2019-02-07T18:23:15.047Z,1.93
2019-02-07T18:25:18.918Z,1.80
2019-02-07T18:27:22.917Z,1.73
2019-02-07T18:29:26.798Z,1.87
2019-02-07T18:31:30.703Z,1.73
2019-02-07T18:33:34.580Z,1.10
2019-02-07T18:35:38.471Z,1.43
2019-02-07T18:37:42.422Z,1.30
2019-02-07T18:39:46.329Z,1.37
2019-02-07T18:41:50.187Z,1.30
2019-02-07T18:43:54.032Z,1.30
2019-02-07T18:45:57.951Z,1.30
2019-02-07T18:48:01.962Z,1.20
2019-02-07T18:50:08.778Z,1.60
2019-02-07T18:52:12.622Z,1.73
2019-02-07T18:54:16.523Z,1.70
2019-02-07T18:56:20.461Z,1.40
2019-02-07T18:58:24.297Z,1.10
2019-02-07T19:00:30.865Z,1.43
2019-02-07T19:02:34.731Z,1.20
2019-02-07T19:04:38.625Z,1.93
2019-02-07T19:06:42.680Z,1.90
2019-02-07T19:08:46.518Z,1.53
2019-02-07T19:10:50.420Z,1.60
2019-02-07T19:12:54.435Z,1.53
2019-02-07T19:14:58.313Z,2.13
2019-02-07T19:17:02.209Z,1.50
2019-02-07T19:19:06.182Z,1.50
2019-02-07T19:21:10.023Z,1.70
2019-02-07T19:23:13.964Z,1.80
2019-02-07T19:25:18.332Z,1.87
2019-02-07T19:27:22.237Z,1.80
2019-02-07T19:29:26.131Z,1.53
2019-02-07T19:31:30.040Z,1.60
2019-02-07T19:33:33.935Z,1.70
2019-02-07T19:35:38.091Z,1.37
2019-02-07T19:37:41.998Z,1.77
2019-02-07T19:39:45.898Z,1.50
2019-02-07T19:41:49.739Z,1.93
2019-02-07T19:43:53.698Z,1.70
2019-02-07T19:45:57.950Z,1.43
2019-02-07T19:48:01.817Z,1.97
2019-02-07T19:50:09.620Z,1.63
2019-02-07T19:52:13.524Z,1.53
2019-02-07T19:54:17.376Z,1.77
2019-02-07T19:56:21.538Z,1.57
2019-02-07T19:58:25.393Z,1.80
2019-02-07T20:00:31.397Z,1.90
2019-02-07T20:02:35.233Z,1.87
2019-02-07T20:04:39.108Z,1.50
2019-02-07T20:06:43.532Z,1.80
2019-02-07T20:08:47.446Z,1.80
2019-02-07T20:10:51.350Z,1.73
2019-02-07T20:12:55.287Z,1.93
2019-02-07T20:14:59.131Z,1.97
2019-02-07T20:17:03.222Z,2.03
2019-02-07T20:19:07.132Z,2.00
2019-02-07T20:21:11.028Z,1.43
2019-02-07T20:23:16.402Z,2.17
2019-02-07T20:25:21.103Z,1.50
2019-02-07T20:27:24.934Z,1.80
2019-02-07T20:29:28.843Z,1.60
2019-02-07T20:31:32.694Z,2.17
2019-02-07T20:33:36.801Z,1.63
2019-02-07T20:35:41.182Z,2.33
2019-02-07T20:37:45.152Z,1.70
2019-02-07T20:39:49.068Z,1.70
2019-02-07T20:41:52.943Z,1.80
2019-02-07T20:43:57.025Z,1.63
2019-02-07T20:46:00.882Z,3.07
2019-02-07T20:48:05.433Z,3.27
2019-02-07T20:50:15.478Z,1.20
2019-02-07T20:52:19.356Z,2.73
2019-02-07T20:54:23.210Z,1.70
2019-02-07T20:56:28.201Z,2.20
2019-02-07T20:58:32.449Z,1.50
2019-02-07T21:00:39.345Z,2.23
2019-02-07T21:02:43.992Z,2.10
2019-02-07T21:04:48.378Z,1.70
2019-02-07T21:06:52.715Z,1.83
2019-02-07T21:08:56.660Z,1.80
2019-02-07T21:11:00.589Z,2.13
2019-02-07T21:13:05.605Z,1.63
2019-02-07T21:15:18.607Z,2.43
2019-02-07T21:17:17.909Z,2.00
2019-02-07T21:19:21.789Z,1.93
2019-02-07T21:21:25.798Z,2.13
2019-02-07T21:23:29.716Z,2.13
2019-02-07T21:25:39.686Z,2.10
2019-02-07T21:27:44.110Z,2.50
2019-02-07T21:29:48.026Z,1.87
2019-02-07T21:31:52.000Z,2.77
2019-02-07T21:33:55.905Z,2.33
2019-02-07T21:35:59.780Z,2.03
2019-02-07T21:38:04.030Z,2.00
2019-02-07T21:40:11.181Z,2.23
2019-02-07T21:42:16.013Z,2.40
2019-02-07T21:44:20.224Z,2.83
2019-02-07T21:46:24.065Z,2.53
2019-02-07T21:48:27.962Z,2.37
2019-02-07T21:50:32.900Z,3.10
2019-02-07T21:52:41.841Z,2.50
2019-02-07T21:54:42.436Z,2.63
2019-02-07T21:56:46.631Z,2.57
2019-02-07T21:58:50.932Z,2.80
2019-02-07T22:00:55.413Z,2.60
2019-02-07T22:02:59.295Z,3.67
2019-02-07T22:05:03.229Z,2.73
2019-02-07T22:07:07.173Z,2.37
2019-02-07T22:09:12.780Z,3.37
2019-02-07T22:11:16.635Z,2.97
2019-02-07T22:13:20.545Z,2.57
2019-02-07T22:15:26.993Z,3.10
2019-02-07T22:17:30.862Z,2.37
2019-02-07T22:19:34.883Z,3.20
2019-02-07T22:21:39.544Z,2.77
2019-02-07T22:23:43.451Z,3.13
2019-02-07T22:25:47.517Z,3.40
2019-02-07T22:27:51.794Z,3.67
2019-02-07T22:29:56.214Z,2.97
2019-02-07T22:32:00.402Z,3.23
2019-02-07T22:34:04.582Z,3.10
2019-02-07T22:36:08.512Z,2.87
2019-02-07T22:38:12.409Z,3.10
2019-02-07T22:40:22.039Z,3.37
2019-02-07T22:42:25.909Z,3.17
2019-02-07T22:44:29.761Z,3.30
2019-02-07T22:46:33.631Z,3.17
2019-02-07T22:48:37.573Z,2.80
2019-02-07T22:50:41.422Z,3.13
2019-02-07T22:52:45.333Z,3.57
2019-02-07T22:54:50.032Z,4.10
2019-02-07T22:56:54.003Z,3.30
2019-02-07T22:58:57.911Z,3.63
2019-02-07T23:01:04.944Z,3.20
2019-02-07T23:03:16.994Z,3.60
2019-02-07T23:05:21.223Z,3.70
2019-02-07T23:07:25.049Z,2.83
2019-02-07T23:09:28.989Z,4.47
2019-02-07T23:11:32.922Z,3.07
2019-02-07T23:13:36.841Z,5.33
2019-02-07T23:16:00.464Z,2.50
2019-02-07T23:18:06.532Z,3.93
2019-02-07T23:20:11.832Z,3.33
2019-02-07T23:22:15.900Z,3.10
2019-02-07T23:24:20.393Z,3.10
2019-02-07T23:26:25.071Z,3.60
2019-02-07T23:28:29.393Z,3.23
2019-02-07T23:30:34.298Z,3.40
2019-02-07T23:32:38.166Z,4.03
2019-02-07T23:34:41.958Z,3.53
2019-02-07T23:36:46.184Z,3.53
2019-02-07T23:38:50.152Z,3.50
2019-02-07T23:40:54.026Z,3.40
2019-02-07T23:42:57.843Z,3.43
2019-02-07T23:45:01.747Z,3.50
2019-02-07T23:47:05.595Z,3.40
2019-02-07T23:49:09.408Z,3.10
2019-02-07T23:51:13.703Z,4.10
2019-02-07T23:53:17.505Z,2.30
2019-02-07T23:55:21.502Z,3.93
2019-02-07T23:57:25.516Z,3.27
2019-02-07T23:59:29.350Z,3.63
